Аэропорт: Бесовец. Петрозаводск

ICAO: ULPB

METAR:
2019-11-21 09:00:00
ULPB 210900Z AUTO 00000MPS 4900 DZ BR ///007/// 03/03 Q1039 RMK QBB210 QFE775/1034
METAR:
Информация по данной станции не доступна